Accueil
METAR-TAF:

METAR-TAF

Aéroports :

Mountain Empire Airport

Marion / Wytheville, Virginie, États-Unis

latitude: 36-54N, longitude: 081-21W, altitude: 780 m

Observation

Le bulletin a été fait il y a 27 minutes, à 07:35 UTC
Vent 13 kt de ouest/sud-ouest avec des rafales jusqu'à 18 kt
Température 3°C
Humidité 81%
Pression 1019 hPa
Visibilité: 16.1 km
Nuages fragmentés à une hauteur de 3600 ft
Ciel couvert à une hauteur de 4200 ft

METAR: KMKJ 200735Z AUTO 25013G18KT 10SM BKN036 OVC042 03/00 A3009 RMK AO2 T00330003

Heure: 03:02 (08:02 UTC)


TAF: absent

Observations et prévisions météorologiques de plus de 4000 aéroports (messages METAR et TAF).

Les stations disponibles sont représentées par des disques jaunes et rouges sur la carte.

Passer la souris dessus pour voir le nom de la station.

Cliquer dessus pour voir les observations et prévisions météorologiques.

Pour changer de carte: cliquez sur les boutons verts avec une croix noire pour zoomer, sur le bouton vert avec un tiret pour effectuer un zoom arrière, ou sur les flèches vertes pour les cartes adjacentes.


METAR-TAF: